Terminal Aerodrome Forecast
Issued by NWS Paducah, KY

Home | Current Version | Previous Version | Text Only | Print | Product List | Glossary On
Versions: 1 2 3 4 5 6 7 8 9 10 11 12 13
000
FTUS43 KPAH 130525
TAFPAH
TAF
KPAH 130525Z 1306/1406 00000KT P6SM SKC
     FM131300 21007KT P6SM FEW250
     FM131500 21013G23KT P6SM FEW250
     FM131800 22019G31KT P6SM FEW250
     FM132300 24012KT P6SM FEW250
     FM140300 29006KT P6SM FEW250=

USA.gov is the U.S. government's official web portal to all federal, state and local government web resources and services.